Time;durP1;ratioP1;P1;durP2;ratioP2;P2;SDS_P1;SDS_P2;PMS_P1;PMS_P2;Temp;Humidity;BMP_temperature;BMP_pressure;BME280_temperature;BME280_humidity;BME280_pressure;Samples;Min_cycle;Max_cycle;Signal;HPM_P1;HPM_P2
2024/03/03 00:00:48;;;;;;;37.35;17.52;;;;;;;;;;5861214;28;20049;-82
2024/03/03 00:03:39;;;;;;;48.83;25.55;;;;;;;;;;5861582;28;20045;-82
2024/03/03 00:06:31;;;;;;;39.53;22.42;;;;;;;;;;5845851;28;20046;-82
2024/03/03 00:09:22;;;;;;;26.88;14.75;;;;;;;;;;5861905;28;20041;-82
2024/03/03 00:12:13;;;;;;;23.10;13.43;;;;;;;;;;5861916;28;20049;-82
2024/03/03 00:15:04;;;;;;;89.72;47.65;;;;;;;;;;5863830;28;20416;-82
2024/03/03 00:17:55;;;;;;;28.85;16.65;;;;;;;;;;5862044;28;20054;-82
2024/03/03 00:20:46;;;;;;;23.50;17.52;;;;;;;;;;5861937;28;20128;-82
2024/03/03 00:23:37;;;;;;;48.78;21.50;;;;;;;;;;5861768;28;20041;-82
2024/03/03 00:26:28;;;;;;;41.33;20.13;;;;;;;;;;5861833;28;20510;-82
2024/03/03 00:29:19;;;;;;;20.55;16.38;;;;;;;;;;5861505;28;20411;-82
2024/03/03 00:32:10;;;;;;;15.93;12.38;;;;;;;;;;5861518;28;20065;-82
2024/03/03 00:35:01;;;;;;;19.63;12.23;;;;;;;;;;5861745;28;20052;-81
2024/03/03 00:37:52;;;;;;;22.30;13.90;;;;;;;;;;5862345;28;20495;-82
2024/03/03 00:40:43;;;;;;;23.50;12.55;;;;;;;;;;5861285;28;20045;-82
2024/03/03 00:43:35;;;;;;;22.63;15.70;;;;;;;;;;5862533;28;20054;-82
2024/03/03 00:46:26;;;;;;;19.33;12.93;;;;;;;;;;5861275;28;20041;-82
2024/03/03 00:49:17;;;;;;;26.85;14.05;;;;;;;;;;5862680;28;20053;-82
2024/03/03 00:52:08;;;;;;;14.85;11.18;;;;;;;;;;5861161;28;20100;-82
2024/03/03 00:54:59;;;;;;;24.27;14.93;;;;;;;;;;5845562;28;20421;-82
2024/03/03 00:57:50;;;;;;;17.33;12.05;;;;;;;;;;5869568;28;20484;-82
2024/03/03 01:00:42;;;;;;;21.92;15.90;;;;;;;;;;5844839;28;20519;-82
2024/03/03 01:03:33;;;;;;;22.40;13.90;;;;;;;;;;5851741;28;20049;-82
2024/03/03 01:06:23;;;;;;;18.98;12.82;;;;;;;;;;5865013;28;20403;-82
2024/03/03 01:09:14;;;;;;;24.00;14.18;;;;;;;;;;5866096;28;20049;-82
2024/03/03 01:12:06;;;;;;;22.55;13.93;;;;;;;;;;5865062;28;20054;-82
2024/03/03 01:14:57;;;;;;;14.95;12.00;;;;;;;;;;5865536;28;20045;-82
2024/03/03 01:17:47;;;;;;;22.30;14.18;;;;;;;;;;5864642;28;20056;-82
2024/03/03 01:20:38;;;;;;;23.65;13.73;;;;;;;;;;5866081;28;20053;-82
2024/03/03 01:23:29;;;;;;;17.02;11.75;;;;;;;;;;5864676;28;20045;-82
2024/03/03 01:26:20;;;;;;;23.05;14.40;;;;;;;;;;5864497;28;20045;-82
2024/03/03 01:29:11;;;;;;;25.30;16.38;;;;;;;;;;5864734;28;20495;-82
2024/03/03 01:32:04;;;;;;;21.33;11.82;;;;;;;;;;5864555;28;20499;-82
2024/03/03 01:34:55;;;;;;;26.80;12.85;;;;;;;;;;5866423;28;20064;-82
2024/03/03 01:37:46;;;;;;;21.80;15.52;;;;;;;;;;5881299;28;20048;-82
2024/03/03 01:40:37;;;;;;;32.13;15.98;;;;;;;;;;5864324;28;20049;-82
2024/03/03 01:43:27;;;;;;;22.20;15.27;;;;;;;;;;5864690;28;20408;-82
2024/03/03 01:46:19;;;;;;;31.23;21.20;;;;;;;;;;5865453;28;20056;-82
2024/03/03 01:49:13;;;;;;;18.90;12.82;;;;;;;;;;5864213;28;20099;-81
2024/03/03 01:52:07;;;;;;;39.35;19.30;;;;;;;;;;5848062;28;20173;-81
2024/03/03 01:54:58;;;;;;;51.47;27.67;;;;;;;;;;5865871;28;20136;-82
2024/03/03 01:58:01;;;;;;;62.65;24.02;;;;;;;;;;5863710;28;20523;-82
2024/03/03 02:00:52;;;;;;;31.00;16.98;;;;;;;;;;5864357;28;20415;-82
2024/03/03 02:03:43;;;;;;;31.30;19.95;;;;;;;;;;5863865;28;20053;-82
2024/03/03 02:06:34;;;;;;;42.28;22.45;;;;;;;;;;5865197;28;20047;-82
2024/03/03 02:09:26;;;;;;;31.40;18.25;;;;;;;;;;5863628;28;20508;-82
2024/03/03 02:12:17;;;;;;;15.73;11.40;;;;;;;;;;5863552;28;20049;-82
2024/03/03 02:15:08;;;;;;;34.85;22.02;;;;;;;;;;5863825;28;20061;-82
2024/03/03 02:17:59;;;;;;;25.90;17.92;;;;;;;;;;5863273;28;20049;-82
2024/03/03 02:20:50;;;;;;;28.38;15.70;;;;;;;;;;5862994;28;20124;-82
2024/03/03 02:23:41;;;;;;;30.33;21.00;;;;;;;;;;5863128;28;20072;-82
2024/03/03 02:26:32;;;;;;;29.02;17.35;;;;;;;;;;5880666;28;20037;-82
2024/03/03 02:29:24;;;;;;;22.48;17.83;;;;;;;;;;5864940;28;20121;-82
2024/03/03 02:32:15;;;;;;;26.15;18.05;;;;;;;;;;5863495;28;20061;-82
2024/03/03 02:35:06;;;;;;;18.33;11.45;;;;;;;;;;5864749;28;20068;-81
2024/03/03 02:37:57;;;;;;;45.33;31.35;;;;;;;;;;5863871;28;20475;-82
2024/03/03 02:40:48;;;;;;;15.13;12.77;;;;;;;;;;5863223;28;20038;-82
2024/03/03 02:43:38;;;;;;;23.48;11.38;;;;;;;;;;5865117;28;20052;-82
2024/03/03 02:46:30;;;;;;;14.90;10.93;;;;;;;;;;5863538;28;20591;-82
2024/03/03 02:49:20;;;;;;;17.17;10.35;;;;;;;;;;5863350;28;20120;-82
2024/03/03 02:52:11;;;;;;;14.45;9.95;;;;;;;;;;5864747;28;20059;-82
2024/03/03 02:55:02;;;;;;;13.90;10.98;;;;;;;;;;5846959;28;20164;-82
2024/03/03 02:57:53;;;;;;;13.43;9.77;;;;;;;;;;5846923;28;20077;-82
2024/03/03 03:00:44;;;;;;;21.10;10.88;;;;;;;;;;5864018;28;20432;-82
2024/03/03 03:03:35;;;;;;;20.58;14.65;;;;;;;;;;5862402;28;20046;-82
2024/03/03 03:06:26;;;;;;;16.70;14.18;;;;;;;;;;5862971;28;20195;-82
2024/03/03 03:09:17;;;;;;;14.10;10.32;;;;;;;;;;5879369;28;20050;-82
2024/03/03 03:12:08;;;;;;;13.52;10.85;;;;;;;;;;5863385;28;20053;-81
2024/03/03 03:14:59;;;;;;;13.30;10.20;;;;;;;;;;5863590;28;20048;-82
2024/03/03 03:17:50;;;;;;;14.38;10.40;;;;;;;;;;5862332;28;20041;-82
2024/03/03 03:20:41;;;;;;;15.57;10.80;;;;;;;;;;5846493;28;20125;-82
2024/03/03 03:23:32;;;;;;;13.07;10.25;;;;;;;;;;5862730;28;20050;-82
2024/03/03 03:26:22;;;;;;;16.63;12.30;;;;;;;;;;5865076;28;20048;-82
2024/03/03 03:29:14;;;;;;;17.83;10.77;;;;;;;;;;5862801;28;20057;-82
2024/03/03 03:32:05;;;;;;;14.77;11.70;;;;;;;;;;5863944;28;20073;-82
2024/03/03 03:34:56;;;;;;;11.18;9.73;;;;;;;;;;5862986;28;20045;-82
2024/03/03 03:37:47;;;;;;;12.63;9.48;;;;;;;;;;5863257;28;20037;-82
2024/03/03 03:40:38;;;;;;;9.80;8.52;;;;;;;;;;5862064;28;20056;-82
2024/03/03 03:43:30;;;;;;;15.52;11.02;;;;;;;;;;5861691;28;20051;-82
2024/03/03 03:46:21;;;;;;;11.73;10.02;;;;;;;;;;5861994;28;20833;-82
2024/03/03 03:49:14;;;;;;;23.02;11.57;;;;;;;;;;5862259;28;20053;-82
2024/03/03 03:52:05;;;;;;;14.70;12.05;;;;;;;;;;5861474;28;20046;-81
2024/03/03 03:54:56;;;;;;;17.67;8.90;;;;;;;;;;5862426;28;20459;-82
2024/03/03 03:57:47;;;;;;;13.10;10.00;;;;;;;;;;5862156;28;20041;-82
2024/03/03 04:00:38;;;;;;;11.25;8.18;;;;;;;;;;5863657;28;20338;-82
2024/03/03 04:03:30;;;;;;;13.23;10.43;;;;;;;;;;5861988;28;20475;-82
2024/03/03 04:06:25;;;;;;;11.68;8.75;;;;;;;;;;5861107;28;20053;-82
2024/03/03 04:09:16;;;;;;;13.35;10.15;;;;;;;;;;5862948;28;20045;-82
2024/03/03 04:12:08;;;;;;;18.10;11.73;;;;;;;;;;5863091;28;20057;-81
2024/03/03 04:14:59;;;;;;;12.23;8.18;;;;;;;;;;5863718;28;20064;-82
2024/03/03 04:17:50;;;;;;;15.15;8.73;;;;;;;;;;5861556;28;20044;-82
2024/03/03 04:20:41;;;;;;;16.15;10.68;;;;;;;;;;5861718;28;20068;-82
2024/03/03 04:23:32;;;;;;;12.73;9.68;;;;;;;;;;5861318;28;20045;-82
2024/03/03 04:26:23;;;;;;;18.25;9.20;;;;;;;;;;5861731;28;20399;-82
2024/03/03 04:29:14;;;;;;;15.85;11.38;;;;;;;;;;5861665;28;20452;-82
2024/03/03 04:32:05;;;;;;;13.13;9.32;;;;;;;;;;5878297;28;20046;-82
2024/03/03 04:35:00;;;;;;;10.32;9.15;;;;;;;;;;5878106;28;20050;-82
2024/03/03 04:37:51;;;;;;;10.88;7.68;;;;;;;;;;5862713;28;20463;-82
2024/03/03 04:40:43;;;;;;;7.32;6.68;;;;;;;;;;5861237;28;20059;-82
2024/03/03 04:43:34;;;;;;;37.47;10.02;;;;;;;;;;5861707;28;20041;-81
2024/03/03 04:46:25;;;;;;;18.58;8.60;;;;;;;;;;5861476;28;20049;-82
2024/03/03 04:49:16;;;;;;;8.95;8.05;;;;;;;;;;5861505;28;20046;-81
2024/03/03 04:52:07;;;;;;;13.93;9.75;;;;;;;;;;5828747;28;20049;-82
2024/03/03 04:54:58;;;;;;;14.93;7.90;;;;;;;;;;5863230;28;20045;-82
2024/03/03 04:57:51;;;;;;;8.00;6.88;;;;;;;;;;5861182;28;20052;-82
2024/03/03 05:00:42;;;;;;;11.55;8.40;;;;;;;;;;5877240;28;20061;-82
2024/03/03 05:03:33;;;;;;;14.18;9.82;;;;;;;;;;5862524;28;20051;-82
2024/03/03 05:06:24;;;;;;;14.30;8.00;;;;;;;;;;5862129;28;20053;-82
2024/03/03 05:09:15;;;;;;;10.00;6.80;;;;;;;;;;5877263;28;20046;-82
2024/03/03 05:12:07;;;;;;;14.50;8.63;;;;;;;;;;5862178;28;20140;-82
2024/03/03 05:14:57;;;;;;;10.55;6.65;;;;;;;;;;5845597;28;20088;-82
2024/03/03 05:17:48;;;;;;;7.88;6.80;;;;;;;;;;5860016;28;20045;-82
2024/03/03 05:20:43;;;;;;;6.82;6.05;;;;;;;;;;5861153;28;20183;-82
2024/03/03 05:23:34;;;;;;;17.30;7.57;;;;;;;;;;5859708;28;20072;-82
2024/03/03 05:26:26;;;;;;;7.82;6.00;;;;;;;;;;5861020;28;20433;-82
2024/03/03 05:29:17;;;;;;;9.02;7.00;;;;;;;;;;5860630;28;20045;-82
2024/03/03 05:32:07;;;;;;;11.07;6.65;;;;;;;;;;5860728;28;20056;-82
2024/03/03 05:34:58;;;;;;;11.38;7.32;;;;;;;;;;5860941;28;20594;-82
2024/03/03 05:37:50;;;;;;;13.07;6.75;;;;;;;;;;5861232;28;20049;-82
2024/03/03 05:40:41;;;;;;;12.40;5.82;;;;;;;;;;5861077;28;20050;-82
2024/03/03 05:43:32;;;;;;;10.93;5.57;;;;;;;;;;5860778;28;20049;-82
2024/03/03 05:46:23;;;;;;;8.50;6.70;;;;;;;;;;5860383;28;20045;-82
2024/03/03 05:49:15;;;;;;;10.98;6.80;;;;;;;;;;5860723;28;20072;-82
2024/03/03 05:52:07;;;;;;;11.68;6.57;;;;;;;;;;5861113;28;20495;-82
2024/03/03 05:54:59;;;;;;;10.35;6.57;;;;;;;;;;5866318;28;20045;-82
2024/03/03 05:57:50;;;;;;;9.90;7.43;;;;;;;;;;5864633;28;20048;-82
2024/03/03 06:00:41;;;;;;;8.20;5.45;;;;;;;;;;5864656;28;20042;-82
2024/03/03 06:03:32;;;;;;;9.00;6.68;;;;;;;;;;5864715;28;20142;-82
2024/03/03 06:06:23;;;;;;;10.93;7.82;;;;;;;;;;5863910;28;20041;-82
2024/03/03 06:09:14;;;;;;;11.63;7.55;;;;;;;;;;5863877;28;20502;-82
2024/03/03 06:12:05;;;;;;;7.32;5.05;;;;;;;;;;5880784;28;20048;-82
2024/03/03 06:14:56;;;;;;;10.25;7.88;;;;;;;;;;5864434;28;20069;-82
2024/03/03 06:17:47;;;;;;;12.13;5.68;;;;;;;;;;5847384;28;20045;-82
2024/03/03 06:20:38;;;;;;;9.10;5.00;;;;;;;;;;5864011;28;20045;-82
2024/03/03 06:23:29;;;;;;;9.52;6.80;;;;;;;;;;5863617;28;20578;-82
2024/03/03 06:26:19;;;;;;;12.25;9.43;;;;;;;;;;5863309;28;20057;-82
2024/03/03 06:29:10;;;;;;;8.30;7.50;;;;;;;;;;5863646;28;20446;-82
2024/03/03 06:32:01;;;;;;;9.13;6.32;;;;;;;;;;5863272;28;20046;-81
2024/03/03 06:34:52;;;;;;;9.60;6.20;;;;;;;;;;5864033;28;20057;-82
2024/03/03 06:37:43;;;;;;;8.63;5.97;;;;;;;;;;5864731;28;20052;-82
2024/03/03 06:40:34;;;;;;;8.20;5.28;;;;;;;;;;5863142;28;20415;-82
2024/03/03 06:43:25;;;;;;;16.33;7.35;;;;;;;;;;5862955;28;20046;-82
2024/03/03 06:46:16;;;;;;;9.30;7.47;;;;;;;;;;5862975;28;20452;-82
2024/03/03 06:49:07;;;;;;;12.93;7.10;;;;;;;;;;5864354;28;20455;-82
2024/03/03 06:51:58;;;;;;;9.70;6.63;;;;;;;;;;5863462;28;20129;-82
2024/03/03 06:54:49;;;;;;;11.65;6.40;;;;;;;;;;5864355;28;20045;-82
2024/03/03 06:57:40;;;;;;;8.55;7.18;;;;;;;;;;5864275;28;20052;-82
2024/03/03 07:00:30;;;;;;;8.20;6.72;;;;;;;;;;5862693;28;20044;-82
2024/03/03 07:06:33;;;;;;;10.82;8.18;;;;;;;;;;5862983;28;20051;-82
2024/03/03 07:09:24;;;;;;;18.75;9.55;;;;;;;;;;5862602;28;20084;-82
2024/03/03 07:12:15;;;;;;;12.32;7.20;;;;;;;;;;5862596;28;20199;-82
2024/03/03 07:15:06;;;;;;;11.32;7.20;;;;;;;;;;5863760;28;20526;-82
2024/03/03 07:17:59;;;;;;;14.02;8.68;;;;;;;;;;5864070;28;20041;-82
2024/03/03 07:20:50;;;;;;;12.07;6.35;;;;;;;;;;5862564;28;20435;-82
2024/03/03 07:23:41;;;;;;;9.30;6.25;;;;;;;;;;5862400;28;20048;-82
2024/03/03 07:26:32;;;;;;;10.43;6.70;;;;;;;;;;5864833;28;20412;-82
2024/03/03 07:29:23;;;;;;;12.43;7.18;;;;;;;;;;5845975;28;20064;-82
2024/03/03 07:32:14;;;;;;;13.50;6.38;;;;;;;;;;5863030;28;20087;-82
2024/03/03 07:35:08;;;;;;;9.30;6.80;;;;;;;;;;5863412;28;20124;-82
2024/03/03 07:37:59;;;;;;;10.63;7.10;;;;;;;;;;5864067;28;20458;-82
2024/03/03 07:40:50;;;;;;;7.63;6.10;;;;;;;;;;5862422;28;20361;-80
2024/03/03 07:43:41;;;;;;;13.02;6.45;;;;;;;;;;5862421;28;20045;-80
2024/03/03 07:46:31;;;;;;;14.43;5.93;;;;;;;;;;5863095;28;20041;-80
2024/03/03 07:49:22;;;;;;;11.55;5.63;;;;;;;;;;5863828;28;20061;-80
2024/03/03 07:52:16;;;;;;;24.08;11.65;;;;;;;;;;5879110;28;20128;-80
2024/03/03 07:55:07;;;;;;;59.45;24.60;;;;;;;;;;5829833;28;20058;-80
2024/03/03 07:57:58;;;;;;;98.90;39.58;;;;;;;;;;5864418;28;20111;-81
2024/03/03 08:00:49;;;;;;;18.10;10.95;;;;;;;;;;5863889;28;20042;-80
2024/03/03 08:03:40;;;;;;;13.40;9.38;;;;;;;;;;5863670;28;20410;-80
2024/03/03 08:06:31;;;;;;;63.80;25.05;;;;;;;;;;5863242;28;20492;-81
2024/03/03 08:09:22;;;;;;;60.53;31.83;;;;;;;;;;5861983;28;20348;-80
2024/03/03 08:12:12;;;;;;;50.65;20.85;;;;;;;;;;5863162;28;20049;-80
2024/03/03 08:15:05;;;;;;;9.88;5.97;;;;;;;;;;5862743;28;20057;-80
2024/03/03 08:17:56;;;;;;;41.45;20.13;;;;;;;;;;5878558;28;20056;-80
2024/03/03 08:20:51;;;;;;;36.70;15.88;;;;;;;;;;5864045;28;20045;-80
2024/03/03 08:23:43;;;;;;;12.65;5.82;;;;;;;;;;5878658;28;20049;-80
2024/03/03 08:26:35;;;;;;;14.77;6.53;;;;;;;;;;5861895;28;20049;-80
2024/03/03 08:29:26;;;;;;;10.07;4.40;;;;;;;;;;5862629;28;20569;-80
2024/03/03 08:32:18;;;;;;;10.15;4.47;;;;;;;;;;5862378;28;20518;-80
2024/03/03 08:35:11;;;;;;;9.73;5.97;;;;;;;;;;5860845;28;20049;-80
2024/03/03 08:38:02;;;;;;;78.72;33.20;;;;;;;;;;5860807;28;20411;-79
2024/03/03 08:40:53;;;;;;;82.43;28.42;;;;;;;;;;5862642;28;20128;-80
2024/03/03 08:43:44;;;;;;;9.70;5.30;;;;;;;;;;5860577;28;20487;-81
2024/03/03 08:46:34;;;;;;;28.02;13.68;;;;;;;;;;5862046;28;20041;-80
2024/03/03 08:49:25;;;;;;;9.05;4.32;;;;;;;;;;5861045;28;20051;-80
2024/03/03 08:52:16;;;;;;;6.63;3.78;;;;;;;;;;5861979;28;20487;-79
2024/03/03 08:55:08;;;;;;;3.78;2.85;;;;;;;;;;5860963;28;20057;-80
2024/03/03 08:57:59;;;;;;;4.00;2.70;;;;;;;;;;5863255;28;20591;-80
2024/03/03 09:00:50;;;;;;;4.13;2.78;;;;;;;;;;5864203;28;20057;-80
2024/03/03 09:03:42;;;;;;;5.03;3.05;;;;;;;;;;5877421;28;20491;-80
2024/03/03 09:06:32;;;;;;;2.47;2.10;;;;;;;;;;5861103;28;20061;-80
2024/03/03 09:09:24;;;;;;;8.27;3.03;;;;;;;;;;5860905;28;20119;-80
2024/03/03 09:12:14;;;;;;;2.53;1.52;;;;;;;;;;5862988;28;20103;-80
2024/03/03 09:15:06;;;;;;;4.32;2.55;;;;;;;;;;5863025;28;20045;-80
2024/03/03 09:17:57;;;;;;;3.30;1.70;;;;;;;;;;5829938;28;20057;-80
2024/03/03 09:20:47;;;;;;;2.58;1.92;;;;;;;;;;5860901;28;20048;-80
2024/03/03 09:23:57;;;;;;;1.33;1.13;;;;;;;;;;5861603;28;20049;-80
2024/03/03 09:26:48;;;;;;;2.17;1.80;;;;;;;;;;5878843;28;20037;-80
2024/03/03 09:29:38;;;;;;;2.38;1.45;;;;;;;;;;5865669;28;20056;-80
2024/03/03 09:32:30;;;;;;;1.33;0.90;;;;;;;;;;5865623;28;20045;-80
2024/03/03 09:35:21;;;;;;;2.00;1.10;;;;;;;;;;5867086;28;20053;-80
2024/03/03 09:38:12;;;;;;;2.80;1.70;;;;;;;;;;5881200;28;20054;-80
2024/03/03 09:41:03;;;;;;;2.17;1.13;;;;;;;;;;5864597;28;20503;-80
2024/03/03 09:44:17;;;;;;;2.45;1.80;;;;;;;;;;5865872;28;20123;-80
2024/03/03 09:47:11;;;;;;;2.20;1.40;;;;;;;;;;5865768;28;20045;-80
2024/03/03 09:50:05;;;;;;;6.45;1.83;;;;;;;;;;5864453;28;20522;-80
2024/03/03 09:52:56;;;;;;;1.25;1.15;;;;;;;;;;5865135;28;20056;-80
2024/03/03 09:55:47;;;;;;;4.65;1.02;;;;;;;;;;5865621;28;20041;-80
2024/03/03 09:58:38;;;;;;;2.03;1.45;;;;;;;;;;5864264;28;20049;-79
2024/03/03 10:01:29;;;;;;;2.25;1.35;;;;;;;;;;5864147;28;20129;-80
2024/03/03 10:04:22;;;;;;;2.45;1.40;;;;;;;;;;5863975;28;20244;-80
2024/03/03 10:07:25;;;;;;;1.13;0.90;;;;;;;;;;5864256;28;20049;-80
2024/03/03 10:10:26;;;;;;;2.33;1.60;;;;;;;;;;5864437;28;20049;-80
2024/03/03 10:13:18;;;;;;;1.83;1.20;;;;;;;;;;5864176;28;20037;-79
2024/03/03 10:16:09;;;;;;;2.53;1.48;;;;;;;;;;5863806;28;20419;-80
2024/03/03 10:19:04;;;;;;;2.50;1.73;;;;;;;;;;5865347;28;20458;-80
2024/03/03 10:21:56;;;;;;;2.55;1.50;;;;;;;;;;5864423;28;20060;-79
2024/03/03 10:24:47;;;;;;;6.30;3.72;;;;;;;;;;5864911;28;20141;-80
2024/03/03 10:27:50;;;;;;;1.77;1.48;;;;;;;;;;5879454;28;20467;-79
2024/03/03 10:30:41;;;;;;;2.67;2.15;;;;;;;;;;5863861;28;20041;-80
2024/03/03 10:33:32;;;;;;;1.52;1.08;;;;;;;;;;5864989;28;20047;-80
2024/03/03 10:36:23;;;;;;;18.63;8.75;;;;;;;;;;5879617;28;20391;-80
2024/03/03 10:39:17;;;;;;;21.48;11.10;;;;;;;;;;5862613;28;20049;-79
2024/03/03 10:42:11;;;;;;;4.20;1.83;;;;;;;;;;5864663;28;20400;-79
2024/03/03 10:45:03;;;;;;;2.83;1.85;;;;;;;;;;5863190;28;20085;-79
2024/03/03 10:47:54;;;;;;;0.60;0.57;;;;;;;;;;5864972;28;20056;-80
2024/03/03 10:50:47;;;;;;;1.58;1.20;;;;;;;;;;5863369;28;20056;-81
2024/03/03 10:53:38;;;;;;;2.25;1.63;;;;;;;;;;5846635;28;20045;-80
2024/03/03 10:56:30;;;;;;;3.75;1.60;;;;;;;;;;5863810;28;20048;-79
2024/03/03 10:59:21;;;;;;;2.45;1.48;;;;;;;;;;5863119;28;20152;-79
2024/03/03 11:02:16;;;;;;;1.63;1.17;;;;;;;;;;5864205;28;20060;-79
2024/03/03 11:05:09;;;;;;;2.50;1.40;;;;;;;;;;5863345;28;20090;-79
2024/03/03 11:08:02;;;;;;;1.60;1.13;;;;;;;;;;5863133;28;20049;-79
2024/03/03 11:11:02;;;;;;;1.38;1.17;;;;;;;;;;5839748;28;20037;-79
2024/03/03 11:14:03;;;;;;;1.33;0.75;;;;;;;;;;5824290;28;20045;-79
2024/03/03 11:16:57;;;;;;;6.20;2.35;;;;;;;;;;5855211;28;20041;-79
2024/03/03 11:19:50;;;;;;;2.92;1.77;;;;;;;;;;5862752;28;20423;-80
2024/03/03 11:23:13;;;;;;;7.40;2.97;;;;;;;;;;5862770;28;20046;-81
2024/03/03 11:26:15;;;;;;;1.98;1.48;;;;;;;;;;5850995;28;20037;-80
2024/03/03 11:29:09;;;;;;;1.75;1.10;;;;;;;;;;5862294;28;20049;-79
2024/03/03 11:32:02;;;;;;;2.10;1.27;;;;;;;;;;5862629;28;20053;-79
2024/03/03 11:34:55;;;;;;;1.17;0.85;;;;;;;;;;5862362;28;20053;-79
2024/03/03 11:37:48;;;;;;;3.00;1.20;;;;;;;;;;5862417;28;20621;-80
2024/03/03 11:40:43;;;;;;;1.40;1.17;;;;;;;;;;5862134;28;20503;-79
2024/03/03 11:43:34;;;;;;;6.60;1.15;;;;;;;;;;5829582;28;20479;-79
2024/03/03 11:46:48;;;;;;;1.75;1.15;;;;;;;;;;5862683;28;20071;-79
2024/03/03 11:49:41;;;;;;;1.38;1.02;;;;;;;;;;5842584;28;20183;-79
2024/03/03 11:52:42;;;;;;;1.50;1.40;;;;;;;;;;5862477;28;20049;-80
2024/03/03 11:55:40;;;;;;;3.58;1.60;;;;;;;;;;5863636;28;20055;-80
2024/03/03 11:58:37;;;;;;;1.75;1.00;;;;;;;;;;5863097;28;20050;-79
2024/03/03 12:01:33;;;;;;;5.97;1.50;;;;;;;;;;5862337;28;20563;-80
2024/03/03 12:04:25;;;;;;;1.92;1.17;;;;;;;;;;5862102;28;20041;-80
2024/03/03 12:07:18;;;;;;;1.15;1.00;;;;;;;;;;5863705;28;20064;-79
2024/03/03 12:10:23;;;;;;;3.17;1.38;;;;;;;;;;5862175;28;20049;-80
2024/03/03 12:13:14;;;;;;;1.67;1.00;;;;;;;;;;5862266;28;20042;-79
2024/03/03 12:16:05;;;;;;;3.47;1.90;;;;;;;;;;5861980;28;20167;-80
2024/03/03 12:18:56;;;;;;;1.75;1.00;;;;;;;;;;5862448;28;20049;-80
2024/03/03 12:21:47;;;;;;;1.85;1.33;;;;;;;;;;5878406;28;20049;-81
2024/03/03 12:24:40;;;;;;;1.48;1.27;;;;;;;;;;5861716;28;20057;-80
2024/03/03 12:27:31;;;;;;;3.55;1.65;;;;;;;;;;5863164;28;20045;-81
2024/03/03 12:30:35;;;;;;;3.17;1.45;;;;;;;;;;5862697;28;20049;-80
2024/03/03 12:33:26;;;;;;;0.68;0.68;;;;;;;;;;5861023;28;20037;-80
2024/03/03 12:36:17;;;;;;;0.80;0.80;;;;;;;;;;5862311;28;20065;-80
2024/03/03 12:39:08;;;;;;;5.22;2.05;;;;;;;;;;5828292;28;20056;-80
2024/03/03 12:41:59;;;;;;;1.60;0.90;;;;;;;;;;5861285;28;20051;-81
2024/03/03 12:44:49;;;;;;;1.13;0.88;;;;;;;;;;5860729;28;20041;-80
2024/03/03 12:47:44;;;;;;;1.02;0.85;;;;;;;;;;5828418;28;20041;-80
2024/03/03 12:50:35;;;;;;;2.13;1.15;;;;;;;;;;5860752;28;20041;-80
2024/03/03 12:53:29;;;;;;;1.52;0.85;;;;;;;;;;5860863;28;20361;-80
2024/03/03 12:56:31;;;;;;;4.82;1.65;;;;;;;;;;5861358;28;20133;-81
2024/03/03 12:59:22;;;;;;;6.47;1.45;;;;;;;;;;5860513;28;20041;-81
2024/03/03 13:02:16;;;;;;;7.35;1.50;;;;;;;;;;5830338;28;20064;-80
2024/03/03 13:05:19;;;;;;;4.50;1.35;;;;;;;;;;5865541;28;20049;-81
2024/03/03 13:08:11;;;;;;;1.05;0.95;;;;;;;;;;5867020;28;20056;-80
2024/03/03 13:11:02;;;;;;;1.45;0.70;;;;;;;;;;5866445;28;20152;-80
2024/03/03 13:13:52;;;;;;;3.42;1.05;;;;;;;;;;5866622;28;20041;-80
2024/03/03 13:16:43;;;;;;;1.35;0.70;;;;;;;;;;5865105;28;20052;-80
2024/03/03 13:19:44;;;;;;;2.42;1.00;;;;;;;;;;5866434;28;20049;-81
2024/03/03 13:22:35;;;;;;;3.75;1.63;;;;;;;;;;5864777;28;20048;-81
2024/03/03 13:25:27;;;;;;;2.75;1.23;;;;;;;;;;5864845;28;20049;-80
2024/03/03 13:28:18;;;;;;;3.97;1.10;;;;;;;;;;5848535;28;20054;-80
2024/03/03 13:31:09;;;;;;;3.38;2.30;;;;;;;;;;5864796;28;20415;-80
2024/03/03 13:34:00;;;;;;;2.30;1.73;;;;;;;;;;5867964;28;20565;-81
2024/03/03 13:36:51;;;;;;;4.72;2.20;;;;;;;;;;5865174;28;20045;-81
2024/03/03 13:39:43;;;;;;;4.20;2.45;;;;;;;;;;5866332;28;20045;-81
2024/03/03 13:42:34;;;;;;;3.45;1.90;;;;;;;;;;5865698;28;20041;-80
2024/03/03 13:45:25;;;;;;;6.13;2.40;;;;;;;;;;5865745;28;20415;-81
2024/03/03 13:48:16;;;;;;;4.32;2.67;;;;;;;;;;5866734;28;20522;-80
2024/03/03 13:51:07;;;;;;;8.02;2.85;;;;;;;;;;5867378;28;20049;-80
2024/03/03 13:53:58;;;;;;;5.80;2.90;;;;;;;;;;5866163;28;20123;-80
2024/03/03 13:56:49;;;;;;;3.22;2.55;;;;;;;;;;5864753;28;20351;-81
2024/03/03 13:59:42;;;;;;;9.07;2.25;;;;;;;;;;5865313;28;20037;-81
2024/03/03 14:02:33;;;;;;;5.30;2.03;;;;;;;;;;5864940;28;20052;-80
2024/03/03 14:05:25;;;;;;;5.18;2.70;;;;;;;;;;5864687;28;20042;-80
2024/03/03 14:08:15;;;;;;;5.00;3.00;;;;;;;;;;5848697;28;20052;-80
2024/03/03 14:11:08;;;;;;;4.97;2.20;;;;;;;;;;5866673;28;20499;-79
2024/03/03 14:13:59;;;;;;;6.25;2.35;;;;;;;;;;5847967;28;20204;-80
2024/03/03 14:16:50;;;;;;;4.90;2.92;;;;;;;;;;5857399;28;20686;-81
2024/03/03 14:19:41;;;;;;;5.30;2.78;;;;;;;;;;5863869;28;20041;-81
2024/03/03 14:22:32;;;;;;;3.33;2.22;;;;;;;;;;5880173;28;20415;-80
2024/03/03 14:25:24;;;;;;;3.15;2.42;;;;;;;;;;5863448;28;20559;-80
2024/03/03 14:28:16;;;;;;;4.15;2.20;;;;;;;;;;5863802;28;20051;-80
2024/03/03 14:31:07;;;;;;;4.05;2.55;;;;;;;;;;5865367;28;20057;-79
2024/03/03 14:33:57;;;;;;;2.60;2.40;;;;;;;;;;5863747;28;20045;-80
2024/03/03 14:36:48;;;;;;;3.60;2.13;;;;;;;;;;5863215;28;20041;-81
2024/03/03 14:39:39;;;;;;;3.65;2.65;;;;;;;;;;5863482;28;20414;-81
2024/03/03 14:42:30;;;;;;;7.65;2.97;;;;;;;;;;5863468;28;20041;-81
2024/03/03 14:45:23;;;;;;;6.80;2.72;;;;;;;;;;5864635;28;20049;-80
2024/03/03 14:48:14;;;;;;;4.10;2.65;;;;;;;;;;5865275;28;20053;-79
2024/03/03 14:51:05;;;;;;;8.85;3.05;;;;;;;;;;5865102;28;20049;-79
2024/03/03 14:53:56;;;;;;;10.80;2.75;;;;;;;;;;5863277;28;20042;-80
2024/03/03 14:56:47;;;;;;;2.58;2.05;;;;;;;;;;5863013;28;20419;-80
2024/03/03 14:59:38;;;;;;;6.35;2.75;;;;;;;;;;5862581;28;20067;-80
2024/03/03 15:02:28;;;;;;;7.45;2.85;;;;;;;;;;5862726;28;20572;-81
2024/03/03 15:05:19;;;;;;;5.03;2.47;;;;;;;;;;5863899;28;20049;-80
2024/03/03 15:08:10;;;;;;;3.20;2.28;;;;;;;;;;5862914;28;20799;-79
2024/03/03 15:11:01;;;;;;;2.55;1.58;;;;;;;;;;5862640;28;20392;-79
2024/03/03 15:13:52;;;;;;;6.40;3.03;;;;;;;;;;5863031;28;20048;-80
2024/03/03 15:16:42;;;;;;;4.18;2.33;;;;;;;;;;5862388;28;20041;-80
2024/03/03 15:19:33;;;;;;;3.25;2.25;;;;;;;;;;5862595;28;20518;-80
2024/03/03 15:22:24;;;;;;;4.93;3.38;;;;;;;;;;5878866;28;20060;-80
2024/03/03 15:25:16;;;;;;;5.05;3.25;;;;;;;;;;5862064;28;20045;-80
2024/03/03 15:28:07;;;;;;;3.92;2.08;;;;;;;;;;5862382;28;20083;-80
2024/03/03 15:30:58;;;;;;;2.42;1.95;;;;;;;;;;5863870;28;20064;-79
2024/03/03 15:33:49;;;;;;;24.95;14.45;;;;;;;;;;5862634;28;20384;-80
2024/03/03 15:36:42;;;;;;;54.42;30.05;;;;;;;;;;5854231;28;20044;-80
2024/03/03 15:39:33;;;;;;;127.32;75.05;;;;;;;;;;5862637;28;20045;-80
2024/03/03 15:42:29;;;;;;;101.65;57.78;;;;;;;;;;5830435;28;20124;-80
2024/03/03 15:45:20;;;;;;;142.50;70.30;;;;;;;;;;5862695;28;20415;-79
2024/03/03 15:48:12;;;;;;;24.13;10.40;;;;;;;;;;5862409;28;20526;-79
2024/03/03 15:51:04;;;;;;;76.40;21.33;;;;;;;;;;5861689;28;20037;-81
2024/03/03 15:53:54;;;;;;;87.82;29.75;;;;;;;;;;5863542;28;20053;-80
2024/03/03 15:56:45;;;;;;;68.35;24.45;;;;;;;;;;5878093;28;20048;-80
2024/03/03 15:59:36;;;;;;;102.53;35.45;;;;;;;;;;5861462;28;20052;-80
2024/03/03 16:02:27;;;;;;;50.92;21.20;;;;;;;;;;5862589;28;20041;-80
2024/03/03 16:05:18;;;;;;;23.95;11.85;;;;;;;;;;5828464;28;20046;-80
2024/03/03 16:08:12;;;;;;;12.23;5.93;;;;;;;;;;5845441;28;20096;-79
2024/03/03 16:11:03;;;;;;;13.68;7.22;;;;;;;;;;5861262;28;20045;-80
2024/03/03 16:13:54;;;;;;;41.35;16.27;;;;;;;;;;5861665;28;20125;-79
2024/03/03 16:16:45;;;;;;;25.77;11.32;;;;;;;;;;5862362;28;20045;-80
2024/03/03 16:19:36;;;;;;;45.70;14.57;;;;;;;;;;5861026;28;20123;-79
2024/03/03 16:22:27;;;;;;;39.47;9.73;;;;;;;;;;5862149;28;20044;-79
2024/03/03 16:25:17;;;;;;;74.65;25.45;;;;;;;;;;5860856;28;20049;-79
2024/03/03 16:28:09;;;;;;;30.55;9.95;;;;;;;;;;5861355;28;20143;-80
2024/03/03 16:30:59;;;;;;;8.32;4.85;;;;;;;;;;5862714;28;20183;-80
2024/03/03 16:33:50;;;;;;;26.60;8.23;;;;;;;;;;5862328;28;20038;-79
2024/03/03 16:36:42;;;;;;;19.42;8.02;;;;;;;;;;5861710;28;20046;-80
2024/03/03 16:39:33;;;;;;;57.08;17.20;;;;;;;;;;5861238;28;20041;-80
2024/03/03 16:42:24;;;;;;;104.70;38.28;;;;;;;;;;5861987;28;20046;-79
2024/03/03 16:45:15;;;;;;;46.28;14.65;;;;;;;;;;5860768;28;20053;-80
2024/03/03 16:48:07;;;;;;;95.43;32.72;;;;;;;;;;5860519;28;20054;-79
2024/03/03 16:50:58;;;;;;;81.30;27.63;;;;;;;;;;5862742;28;20132;-79
2024/03/03 16:53:52;;;;;;;13.35;7.13;;;;;;;;;;5862637;28;20048;-79
2024/03/03 16:56:43;;;;;;;30.30;13.00;;;;;;;;;;5860293;28;20046;-80
2024/03/03 16:59:34;;;;;;;23.48;8.77;;;;;;;;;;5862283;28;20053;-79